createdAt,value
2023-03-29T00:01:35.161Z,100844.84
2023-03-29T00:04:07.296Z,100840.41
2023-03-29T00:06:35.627Z,100839.25
2023-03-29T00:09:03.393Z,100845.28
2023-03-29T00:11:31.730Z,100850.81
2023-03-29T00:13:59.169Z,100839.69
2023-03-29T00:16:26.989Z,100842.56
2023-03-29T00:18:54.529Z,100845.41
2023-03-29T00:21:23.614Z,100850.69
2023-03-29T00:23:51.014Z,100851.75
2023-03-29T00:26:18.810Z,100839.44
2023-03-29T00:28:46.173Z,100842.41
2023-03-29T00:31:15.622Z,100851.25
2023-03-29T00:33:43.833Z,100852.47
2023-03-29T00:36:12.168Z,100849.13
2023-03-29T00:38:40.964Z,100857.72
2023-03-29T00:41:09.673Z,100850.69
2023-03-29T00:43:57.918Z,100848.44
2023-03-29T00:46:26.959Z,100842.03
2023-03-29T00:48:58.217Z,100841.41
2023-03-29T00:51:30.385Z,100837.50
2023-03-29T00:54:03.519Z,100837.44
2023-03-29T00:56:34.939Z,100826.75
2023-03-29T00:59:06.449Z,100825.13
2023-03-29T01:01:42.389Z,100827.56
2023-03-29T01:04:11.112Z,100824.72
2023-03-29T01:06:41.632Z,100824.13
2023-03-29T01:09:13.992Z,100820.72
2023-03-29T01:11:46.918Z,100819.19
2023-03-29T01:14:20.472Z,100818.41
2023-03-29T01:16:48.425Z,100814.94
2023-03-29T01:19:20.964Z,100810.88
2023-03-29T01:21:53.149Z,100803.56
2023-03-29T01:24:43.570Z,100802.16
2023-03-29T01:27:17.652Z,100802.53
2023-03-29T01:29:51.543Z,100793.91
2023-03-29T01:32:23.363Z,100788.91
2023-03-29T01:34:55.665Z,100795.69
2023-03-29T01:37:29.822Z,100791.88
2023-03-29T01:39:57.156Z,100795.88
2023-03-29T01:42:39.644Z,100795.09
2023-03-29T01:45:15.328Z,100784.63
2023-03-29T01:47:49.176Z,100782.47
2023-03-29T01:50:19.970Z,100789.19
2023-03-29T01:52:54.193Z,100784.41
2023-03-29T01:55:26.036Z,100790.69
2023-03-29T01:57:58.301Z,100779.66
2023-03-29T02:00:28.787Z,100788.75
2023-03-29T02:03:00.550Z,100789.72
2023-03-29T02:05:30.129Z,100788.63
2023-03-29T02:07:59.197Z,100787.72
2023-03-29T02:10:28.001Z,100784.03
2023-03-29T02:12:56.145Z,100790.09
2023-03-29T02:15:23.686Z,100791.63
2023-03-29T02:17:53.349Z,100792.38
2023-03-29T02:20:25.512Z,100787.81
2023-03-29T02:23:00.382Z,100783.97
2023-03-29T02:25:29.061Z,100786.28
2023-03-29T02:27:57.481Z,100777.50
2023-03-29T02:30:28.846Z,100778.81
2023-03-29T02:33:05.061Z,100772.19
2023-03-29T02:35:35.442Z,100770.06
2023-03-29T02:38:05.746Z,100762.94
2023-03-29T02:40:34.620Z,100766.50
2023-03-29T02:43:04.378Z,100770.22
2023-03-29T02:45:32.700Z,100761.75
2023-03-29T02:48:04.019Z,100756.78
2023-03-29T02:50:36.538Z,100753.81
2023-03-29T02:53:11.222Z,100755.38
2023-03-29T02:55:39.332Z,100751.28
2023-03-29T02:58:07.218Z,100743.13
2023-03-29T03:00:35.934Z,100747.88
2023-03-29T03:03:07.158Z,100743.31
2023-03-29T03:05:34.695Z,100737.88
2023-03-29T03:08:02.572Z,100730.56
2023-03-29T03:10:30.207Z,100734.34
2023-03-29T03:12:57.933Z,100731.53
2023-03-29T03:15:25.598Z,100732.22
2023-03-29T03:17:53.719Z,100733.06
2023-03-29T03:20:22.756Z,100729.44
2023-03-29T03:22:50.564Z,100724.88
2023-03-29T03:25:20.273Z,100722.56
2023-03-29T03:27:48.888Z,100720.97
2023-03-29T03:30:17.104Z,100712.25
2023-03-29T03:32:45.018Z,100713.41
2023-03-29T03:35:12.943Z,100700.84
2023-03-29T03:37:42.295Z,100705.88
2023-03-29T03:40:10.306Z,100695.78
2023-03-29T03:42:38.532Z,100700.13
2023-03-29T03:45:07.646Z,100692.06
2023-03-29T03:47:35.765Z,100685.47
2023-03-29T03:50:03.175Z,100692.28
2023-03-29T03:52:30.990Z,100693.47
2023-03-29T03:54:59.889Z,100694.41
2023-03-29T03:57:27.895Z,100695.63
2023-03-29T03:59:55.395Z,100697.31
2023-03-29T04:02:23.298Z,100697.09
2023-03-29T04:04:50.772Z,100691.19
2023-03-29T04:07:18.747Z,100685.47
2023-03-29T04:09:46.142Z,100687.06
2023-03-29T04:12:15.609Z,100687.84
2023-03-29T04:14:42.988Z,100689.00
2023-03-29T04:17:11.348Z,100694.41
2023-03-29T04:19:38.915Z,100696.09
2023-03-29T04:22:06.709Z,100694.63
2023-03-29T04:24:34.060Z,100699.13
2023-03-29T04:27:01.903Z,100694.34
2023-03-29T04:29:30.911Z,100692.88
2023-03-29T04:31:59.070Z,100694.19
2023-03-29T04:34:26.528Z,100697.00
2023-03-29T04:36:54.694Z,100693.34
2023-03-29T04:39:22.274Z,100692.94
2023-03-29T04:41:50.045Z,100697.22
2023-03-29T04:44:17.567Z,100691.03
2023-03-29T04:46:46.772Z,100696.75
2023-03-29T04:49:14.478Z,100688.34
2023-03-29T04:51:42.322Z,100689.00
2023-03-29T04:54:09.863Z,100682.25
2023-03-29T04:56:37.737Z,100683.72
2023-03-29T04:59:05.178Z,100677.88
2023-03-29T05:01:32.991Z,100677.53
2023-03-29T05:04:01.904Z,100679.25
2023-03-29T05:06:29.750Z,100664.63
2023-03-29T05:08:57.080Z,100672.03
2023-03-29T05:11:24.916Z,100668.06
2023-03-29T05:13:52.281Z,100674.44
2023-03-29T05:16:20.315Z,100674.41
2023-03-29T05:18:47.782Z,100673.72
2023-03-29T05:21:17.096Z,100663.53
2023-03-29T05:23:44.544Z,100663.66
2023-03-29T05:26:12.177Z,100660.22
2023-03-29T05:28:39.607Z,100666.13
2023-03-29T05:31:09.037Z,100669.44
2023-03-29T05:33:36.804Z,100671.31
2023-03-29T05:36:08.459Z,100673.78
2023-03-29T05:38:38.139Z,100668.69
2023-03-29T05:41:07.062Z,100670.19
2023-03-29T05:43:35.237Z,100667.19
2023-03-29T05:46:04.098Z,100663.69
2023-03-29T05:48:31.592Z,100661.44
2023-03-29T05:50:59.561Z,100664.34
2023-03-29T05:53:27.166Z,100651.13
2023-03-29T05:55:56.807Z,100653.63
2023-03-29T05:58:24.206Z,100653.28
2023-03-29T06:00:52.626Z,100650.13
2023-03-29T06:03:22.294Z,100642.41
2023-03-29T06:05:56.886Z,100647.63
2023-03-29T06:08:26.591Z,100649.31
2023-03-29T06:11:00.712Z,100646.88
2023-03-29T06:13:29.726Z,100648.47
2023-03-29T06:15:58.843Z,100645.28
2023-03-29T06:18:26.559Z,100639.34
2023-03-29T06:20:54.510Z,100630.50
2023-03-29T06:23:22.702Z,100637.97
2023-03-29T06:25:51.085Z,100625.28
2023-03-29T06:28:20.110Z,100633.00
2023-03-29T06:30:48.757Z,100643.34
2023-03-29T06:33:16.355Z,100635.06
2023-03-29T06:35:47.192Z,100643.94
2023-03-29T06:38:14.938Z,100635.06
2023-03-29T06:40:43.097Z,100636.94
2023-03-29T06:43:10.917Z,100640.31
2023-03-29T06:45:40.610Z,100634.72
2023-03-29T06:48:08.649Z,100649.09
2023-03-29T06:50:37.106Z,100648.53
2023-03-29T06:53:05.034Z,100642.25
2023-03-29T06:55:33.106Z,100632.66
2023-03-29T06:58:02.456Z,100638.16
2023-03-29T07:00:30.737Z,100634.41
2023-03-29T07:03:04.085Z,100633.47
2023-03-29T07:05:32.711Z,100630.28
2023-03-29T07:08:00.207Z,100635.22
2023-03-29T07:10:30.717Z,100637.81
2023-03-29T07:12:58.993Z,100633.47
2023-03-29T07:15:27.585Z,100637.47
2023-03-29T07:17:55.882Z,100637.13
2023-03-29T07:20:26.080Z,100632.53
2023-03-29T07:22:53.608Z,100638.00
2023-03-29T07:25:23.990Z,100636.69
2023-03-29T07:27:51.650Z,100637.28
2023-03-29T07:30:21.952Z,100639.22
2023-03-29T07:32:51.131Z,100629.28
2023-03-29T07:35:19.527Z,100632.03
2023-03-29T07:37:48.475Z,100638.53
2023-03-29T07:40:18.438Z,100636.81
2023-03-29T07:42:46.695Z,100623.47
2023-03-29T07:45:16.157Z,100626.84
2023-03-29T07:47:44.048Z,100621.69
2023-03-29T07:50:12.443Z,100621.50
2023-03-29T07:52:40.155Z,100610.91
2023-03-29T07:55:11.874Z,100619.41
2023-03-29T07:57:39.824Z,100613.09
2023-03-29T08:00:09.025Z,100616.66
2023-03-29T08:02:36.511Z,100614.00
2023-03-29T08:05:05.435Z,100616.09
2023-03-29T08:07:33.076Z,100613.88
2023-03-29T08:10:01.315Z,100611.19
2023-03-29T08:12:30.484Z,100610.41
2023-03-29T08:14:58.621Z,100612.75
2023-03-29T08:17:26.291Z,100610.97
2023-03-29T08:19:54.399Z,100606.31
2023-03-29T08:22:21.834Z,100614.69
2023-03-29T08:24:49.605Z,100608.53
2023-03-29T08:27:17.082Z,100603.69
2023-03-29T08:29:46.402Z,100605.53
2023-03-29T08:32:14.034Z,100606.84
2023-03-29T08:34:42.210Z,100605.19
2023-03-29T08:37:09.641Z,100598.59
2023-03-29T08:39:37.475Z,100592.94
2023-03-29T08:42:30.134Z,100597.16
2023-03-29T08:45:08.712Z,100588.53
2023-03-29T08:47:47.924Z,100588.44
2023-03-29T08:50:16.279Z,100593.94
2023-03-29T08:52:49.006Z,100584.31
2023-03-29T08:55:26.850Z,100590.41
2023-03-29T08:57:55.909Z,100584.66
2023-03-29T09:00:34.084Z,100580.44
2023-03-29T09:03:04.886Z,100585.91
2023-03-29T09:05:39.543Z,100576.94
2023-03-29T09:08:12.368Z,100580.91
2023-03-29T09:10:44.650Z,100570.56
2023-03-29T09:13:23.185Z,100567.47
2023-03-29T09:15:58.897Z,100572.41
2023-03-29T09:18:36.482Z,100564.75
2023-03-29T09:21:14.815Z,100563.31
2023-03-29T09:24:10.525Z,100563.81
2023-03-29T09:26:41.924Z,100567.09
2023-03-29T09:29:25.727Z,100565.59
2023-03-29T09:31:56.314Z,100563.81
2023-03-29T09:34:28.794Z,100564.22
2023-03-29T09:37:03.025Z,100559.88
2023-03-29T09:39:30.729Z,100555.84
2023-03-29T09:42:02.408Z,100558.84
2023-03-29T09:44:35.774Z,100553.84
2023-03-29T09:47:09.946Z,100546.19
2023-03-29T09:49:43.050Z,100551.94
2023-03-29T09:52:14.233Z,100554.94
2023-03-29T09:54:41.708Z,100549.50
2023-03-29T09:57:12.232Z,100551.41
2023-03-29T09:59:40.256Z,100540.69
2023-03-29T10:02:11.263Z,100537.97
2023-03-29T10:04:39.122Z,100534.72
2023-03-29T10:07:07.270Z,100539.28
2023-03-29T10:09:35.795Z,100534.53
2023-03-29T10:12:06.793Z,100528.75
2023-03-29T10:14:36.437Z,100521.03
2023-03-29T10:17:11.730Z,100523.91
2023-03-29T10:19:49.063Z,100511.84
2023-03-29T10:22:19.210Z,100513.72
2023-03-29T10:24:50.676Z,100509.69
2023-03-29T10:27:22.646Z,100494.84
2023-03-29T10:29:51.380Z,100505.28
2023-03-29T10:32:31.789Z,100505.34
2023-03-29T10:35:09.002Z,100499.94
2023-03-29T10:37:40.849Z,100497.34
2023-03-29T10:40:19.489Z,100499.72
2023-03-29T10:42:47.565Z,100490.34
2023-03-29T10:45:20.614Z,100490.88
2023-03-29T10:47:48.969Z,100492.00
2023-03-29T10:50:19.022Z,100483.63
2023-03-29T10:52:47.268Z,100483.59
2023-03-29T10:55:14.912Z,100484.91
2023-03-29T10:57:52.906Z,100484.34
2023-03-29T11:00:26.463Z,100484.28
2023-03-29T11:03:41.549Z,100481.84
2023-03-29T11:06:17.668Z,100480.50
2023-03-29T11:08:58.588Z,100474.97
2023-03-29T11:11:47.416Z,100467.41
2023-03-29T11:14:27.432Z,100466.91
2023-03-29T11:17:05.215Z,100449.41
2023-03-29T11:19:53.557Z,100450.22
2023-03-29T11:22:27.303Z,100436.63
2023-03-29T11:25:09.721Z,100435.63
2023-03-29T11:27:45.828Z,100435.28
2023-03-29T11:30:22.486Z,100428.16
2023-03-29T11:33:00.316Z,100420.03
2023-03-29T11:35:46.366Z,100427.41
2023-03-29T11:38:23.661Z,100422.38
2023-03-29T11:40:59.170Z,100421.47
2023-03-29T11:43:32.145Z,100416.94
2023-03-29T11:46:08.259Z,100408.38
2023-03-29T11:48:41.646Z,100398.31
2023-03-29T11:51:16.315Z,100409.66
2023-03-29T11:53:54.545Z,100407.97
2023-03-29T11:56:28.429Z,100403.16
2023-03-29T11:59:02.728Z,100398.75
2023-03-29T12:01:35.474Z,100407.06
2023-03-29T12:04:11.058Z,100388.91
2023-03-29T12:06:46.570Z,100404.22
2023-03-29T12:09:25.653Z,100386.25
2023-03-29T12:12:03.408Z,100377.88
2023-03-29T12:14:45.297Z,100379.66
2023-03-29T12:17:17.112Z,100377.34
2023-03-29T12:19:49.174Z,100377.28
2023-03-29T12:22:17.491Z,100375.88
2023-03-29T12:24:50.542Z,100377.13
2023-03-29T12:27:28.936Z,100370.44
2023-03-29T12:30:34.341Z,100374.19
2023-03-29T12:33:29.776Z,100362.81
2023-03-29T12:36:09.857Z,100357.84
2023-03-29T12:38:38.486Z,100361.13
2023-03-29T12:41:16.422Z,100354.06
2023-03-29T12:43:44.653Z,100355.38
2023-03-29T12:46:18.396Z,100351.88
2023-03-29T12:48:49.251Z,100342.31
2023-03-29T12:51:19.977Z,100352.38
2023-03-29T12:53:50.562Z,100345.84
2023-03-29T12:56:21.494Z,100333.38
2023-03-29T12:59:16.500Z,100334.44
2023-03-29T13:01:58.682Z,100334.63
2023-03-29T13:04:38.288Z,100346.53
2023-03-29T13:07:06.227Z,100339.22
2023-03-29T13:09:35.995Z,100345.56
2023-03-29T13:12:24.055Z,100342.28
2023-03-29T13:14:55.106Z,100336.28
2023-03-29T13:17:27.643Z,100331.09
2023-03-29T13:20:24.463Z,100332.28
2023-03-29T13:23:04.656Z,100336.50
2023-03-29T13:25:47.775Z,100331.50
2023-03-29T13:28:23.033Z,100332.41
2023-03-29T13:30:59.846Z,100336.28
2023-03-29T13:33:50.949Z,100348.44
2023-03-29T13:36:35.526Z,100339.88
2023-03-29T13:39:06.688Z,100327.72
2023-03-29T13:41:48.256Z,100327.41
2023-03-29T13:44:27.506Z,100316.16
2023-03-29T13:47:13.702Z,100318.69
2023-03-29T13:49:43.906Z,100321.66
2023-03-29T13:52:15.728Z,100314.75
2023-03-29T13:54:51.967Z,100309.88
2023-03-29T13:57:23.170Z,100315.09
2023-03-29T13:59:57.648Z,100303.84
2023-03-29T14:02:41.107Z,100296.03
2023-03-29T14:05:12.642Z,100295.91
2023-03-29T14:07:45.025Z,100297.13
2023-03-29T14:10:15.754Z,100292.22
2023-03-29T14:12:43.803Z,100295.13
2023-03-29T14:15:21.858Z,100298.41
2023-03-29T14:17:53.125Z,100303.88
2023-03-29T14:20:20.689Z,100307.94
2023-03-29T14:22:49.686Z,100315.41
2023-03-29T14:25:18.542Z,100314.44
2023-03-29T14:27:46.419Z,100313.69
2023-03-29T14:30:22.136Z,100306.81
2023-03-29T14:32:50.318Z,100304.75
2023-03-29T14:35:18.384Z,100307.47
2023-03-29T14:37:48.119Z,100296.34
2023-03-29T14:40:18.648Z,100293.63
2023-03-29T14:42:47.482Z,100285.44
2023-03-29T14:45:17.310Z,100282.50
2023-03-29T14:47:47.071Z,100280.44
2023-03-29T14:50:21.590Z,100269.03
2023-03-29T14:52:52.357Z,100263.94
2023-03-29T14:55:21.050Z,100272.34
2023-03-29T14:57:50.080Z,100267.97
2023-03-29T15:00:23.266Z,100267.34
2023-03-29T15:02:55.969Z,100277.94
2023-03-29T15:05:28.955Z,100283.31
2023-03-29T15:07:56.889Z,100276.47
2023-03-29T15:10:24.586Z,100269.09
2023-03-29T15:12:53.823Z,100266.25
2023-03-29T15:15:23.735Z,100269.06
2023-03-29T15:17:53.673Z,100265.69
2023-03-29T15:20:25.134Z,100268.06
2023-03-29T15:22:56.024Z,100267.91
2023-03-29T15:25:26.548Z,100271.41
2023-03-29T15:27:57.963Z,100264.84
2023-03-29T15:30:33.619Z,100258.25
2023-03-29T15:33:32.186Z,100261.59
2023-03-29T15:36:02.472Z,100264.28
2023-03-29T15:38:42.528Z,100269.31
2023-03-29T15:41:12.492Z,100271.63
2023-03-29T15:43:40.369Z,100269.28
2023-03-29T15:46:11.783Z,100265.00
2023-03-29T15:48:41.448Z,100261.06
2023-03-29T15:51:10.080Z,100257.34
2023-03-29T15:53:38.391Z,100258.84
2023-03-29T15:56:12.785Z,100268.13
2023-03-29T15:58:43.584Z,100268.13
2023-03-29T16:01:22.006Z,100266.50
2023-03-29T16:03:51.567Z,100273.13
2023-03-29T16:06:19.073Z,100264.38
2023-03-29T16:08:47.000Z,100267.25
2023-03-29T16:11:14.515Z,100259.59
2023-03-29T16:13:42.590Z,100253.94
2023-03-29T16:16:11.030Z,100256.78
2023-03-29T16:18:39.257Z,100257.69
2023-03-29T16:21:13.271Z,100258.22
2023-03-29T16:23:41.339Z,100260.66
2023-03-29T16:26:11.509Z,100260.78
2023-03-29T16:28:39.786Z,100261.22
2023-03-29T16:31:09.421Z,100269.75
2023-03-29T16:33:37.366Z,100257.69
2023-03-29T16:36:05.745Z,100248.97
2023-03-29T16:38:35.428Z,100251.06
2023-03-29T16:41:03.091Z,100258.25
2023-03-29T16:43:30.883Z,100255.56
2023-03-29T16:45:58.344Z,100248.41
2023-03-29T16:48:26.523Z,100251.44
2023-03-29T16:50:54.055Z,100246.50
2023-03-29T16:53:21.931Z,100247.59
2023-03-29T16:55:51.027Z,100244.50
2023-03-29T16:58:18.918Z,100240.97
2023-03-29T17:00:48.301Z,100247.13
2023-03-29T17:03:16.662Z,100234.41
2023-03-29T17:05:47.478Z,100239.69
2023-03-29T17:08:16.444Z,100236.66
2023-03-29T17:10:44.051Z,100232.25
2023-03-29T17:13:13.424Z,100223.06
2023-03-29T17:15:41.028Z,100224.53
2023-03-29T17:18:09.428Z,100231.63
2023-03-29T17:20:39.143Z,100225.47
2023-03-29T17:23:06.993Z,100220.13
2023-03-29T17:25:34.545Z,100218.84
2023-03-29T17:28:02.904Z,100216.06
2023-03-29T17:30:33.975Z,100225.63
2023-03-29T17:33:03.881Z,100219.84
2023-03-29T17:35:32.977Z,100217.69
2023-03-29T17:38:01.814Z,100220.59
2023-03-29T17:40:29.316Z,100217.50
2023-03-29T17:42:57.150Z,100221.31
2023-03-29T17:45:24.698Z,100228.13
2023-03-29T17:47:54.140Z,100226.53
2023-03-29T17:50:21.652Z,100229.13
2023-03-29T17:52:49.542Z,100232.34
2023-03-29T17:55:17.286Z,100228.41
2023-03-29T17:57:45.126Z,100229.06
2023-03-29T18:00:16.350Z,100229.38
2023-03-29T18:02:44.215Z,100226.59
2023-03-29T18:05:13.248Z,100240.28
2023-03-29T18:07:41.222Z,100235.56
2023-03-29T18:10:09.443Z,100234.28
2023-03-29T18:12:37.459Z,100242.44
2023-03-29T18:15:05.764Z,100232.81
2023-03-29T18:17:33.573Z,100238.72
2023-03-29T18:20:01.087Z,100229.97
2023-03-29T18:22:30.422Z,100243.50
2023-03-29T18:24:57.814Z,100241.13
2023-03-29T18:27:25.706Z,100242.41
2023-03-29T18:29:53.192Z,100240.16
2023-03-29T18:32:21.126Z,100238.59
2023-03-29T18:34:48.638Z,100237.53
2023-03-29T18:37:16.354Z,100236.28
2023-03-29T18:39:45.289Z,100240.63
2023-03-29T18:42:13.125Z,100240.44
2023-03-29T18:44:40.779Z,100234.91
2023-03-29T18:47:09.062Z,100234.03
2023-03-29T18:49:36.482Z,100231.78
2023-03-29T18:52:04.471Z,100237.06
2023-03-29T18:54:31.941Z,100237.56
2023-03-29T18:57:01.314Z,100234.94
2023-03-29T18:59:28.922Z,100236.63
2023-03-29T19:01:56.872Z,100231.28
2023-03-29T19:04:26.845Z,100231.59
2023-03-29T19:06:55.021Z,100225.75
2023-03-29T19:09:22.897Z,100229.09
2023-03-29T19:11:51.053Z,100223.44
2023-03-29T19:14:19.872Z,100231.44
2023-03-29T19:16:47.729Z,100227.28
2023-03-29T19:19:15.317Z,100223.78
2023-03-29T19:21:43.182Z,100226.53
2023-03-29T19:24:10.651Z,100220.34
2023-03-29T19:26:39.012Z,100222.78
2023-03-29T19:29:06.524Z,100219.50
2023-03-29T19:31:36.338Z,100214.34
2023-03-29T19:34:04.548Z,100206.06
2023-03-29T19:36:32.968Z,100213.50
2023-03-29T19:39:00.582Z,100211.56
2023-03-29T19:41:28.795Z,100216.03
2023-03-29T19:43:56.427Z,100207.84
2023-03-29T19:46:24.476Z,100207.16
2023-03-29T19:48:53.465Z,100205.88
2023-03-29T19:51:21.371Z,100199.28
2023-03-29T19:53:48.832Z,100207.84
2023-03-29T19:56:16.959Z,100198.00
2023-03-29T19:58:44.896Z,100196.31
2023-03-29T20:01:12.847Z,100202.44
2023-03-29T20:03:42.964Z,100194.84
2023-03-29T20:06:13.364Z,100198.09
2023-03-29T20:08:41.204Z,100191.50
2023-03-29T20:11:09.567Z,100185.91
2023-03-29T20:13:39.053Z,100180.25
2023-03-29T20:16:09.895Z,100177.91
2023-03-29T20:18:38.088Z,100180.34
2023-03-29T20:21:06.670Z,100178.28
2023-03-29T20:23:36.036Z,100179.34
2023-03-29T20:26:04.389Z,100179.53
2023-03-29T20:28:32.028Z,100184.09
2023-03-29T20:31:04.139Z,100177.28
2023-03-29T20:33:31.986Z,100178.78
2023-03-29T20:35:59.998Z,100180.00
2023-03-29T20:38:27.908Z,100178.78
2023-03-29T20:40:57.305Z,100172.44
2023-03-29T20:43:24.839Z,100172.31
2023-03-29T20:45:54.517Z,100170.19
2023-03-29T20:48:23.485Z,100170.72
2023-03-29T20:50:52.054Z,100159.44
2023-03-29T20:53:19.679Z,100166.88
2023-03-29T20:55:47.436Z,100154.88
2023-03-29T20:58:16.456Z,100154.19
2023-03-29T21:00:44.420Z,100147.91
2023-03-29T21:03:12.029Z,100152.13
2023-03-29T21:05:39.882Z,100148.69
2023-03-29T21:08:07.511Z,100140.03
2023-03-29T21:10:35.631Z,100146.47
2023-03-29T21:13:03.416Z,100144.47
2023-03-29T21:15:32.859Z,100133.56
2023-03-29T21:18:00.624Z,100127.44
2023-03-29T21:20:28.517Z,100126.50
2023-03-29T21:22:57.688Z,100125.22
2023-03-29T21:25:26.541Z,100119.91
2023-03-29T21:27:54.038Z,100113.81
2023-03-29T21:30:22.182Z,100110.56
2023-03-29T21:32:51.148Z,100109.16
2023-03-29T21:35:19.194Z,100109.44
2023-03-29T21:37:46.638Z,100109.59
2023-03-29T21:40:14.505Z,100121.78
2023-03-29T21:42:41.889Z,100115.94
2023-03-29T21:45:10.821Z,100108.56
2023-03-29T21:47:38.370Z,100107.00
2023-03-29T21:50:08.851Z,100094.81
2023-03-29T21:52:36.294Z,100086.94
2023-03-29T21:55:04.335Z,100093.84
2023-03-29T21:57:32.038Z,100080.66
2023-03-29T21:59:59.929Z,100086.22
2023-03-29T22:02:30.122Z,100090.88
2023-03-29T22:04:58.351Z,100079.13
2023-03-29T22:07:27.539Z,100076.28
2023-03-29T22:09:55.238Z,100078.56
2023-03-29T22:12:22.714Z,100077.69
2023-03-29T22:14:50.659Z,100077.25
2023-03-29T22:17:18.132Z,100074.88
2023-03-29T22:19:45.985Z,100060.34
2023-03-29T22:22:14.371Z,100057.53
2023-03-29T22:24:43.646Z,100059.22
2023-03-29T22:27:11.668Z,100066.69
2023-03-29T22:29:39.572Z,100055.16
2023-03-29T22:32:07.067Z,100063.63
2023-03-29T22:34:34.967Z,100061.88
2023-03-29T22:37:02.494Z,100062.28
2023-03-29T22:39:30.686Z,100056.00
2023-03-29T22:41:59.631Z,100055.88
2023-03-29T22:44:30.854Z,100054.19
2023-03-29T22:46:58.282Z,100053.03
2023-03-29T22:49:26.120Z,100051.03
2023-03-29T22:51:53.659Z,100053.94
2023-03-29T22:54:21.448Z,100043.81
2023-03-29T22:56:48.909Z,100033.69
2023-03-29T22:59:18.099Z,100041.59
2023-03-29T23:01:45.489Z,100032.44
2023-03-29T23:04:13.366Z,100035.72
2023-03-29T23:06:40.847Z,100033.06
2023-03-29T23:09:08.591Z,100025.47
2023-03-29T23:11:36.249Z,100022.13
2023-03-29T23:14:04.004Z,100017.22
2023-03-29T23:16:33.036Z,100017.94
2023-03-29T23:19:00.887Z,100019.34
2023-03-29T23:21:28.313Z,100021.00
2023-03-29T23:23:56.043Z,100024.88
2023-03-29T23:26:23.411Z,100027.94
2023-03-29T23:28:51.102Z,100027.75
2023-03-29T23:31:18.726Z,100022.44
2023-03-29T23:33:48.016Z,100014.88
2023-03-29T23:36:17.852Z,100011.34
2023-03-29T23:38:46.516Z,100012.06
2023-03-29T23:41:13.994Z,100012.75
2023-03-29T23:43:43.715Z,100004.53
2023-03-29T23:46:12.848Z,100009.72
2023-03-29T23:48:43.430Z,100012.25
2023-03-29T23:51:12.348Z,100007.53
2023-03-29T23:53:40.260Z,99994.59
2023-03-29T23:56:08.035Z,99996.53
2023-03-29T23:58:37.833Z,99992.06
